sensor_id;sensor_type;location;lat;lon;timestamp;temperature;humidity
9437;DHT22;4757;59.334;18.034;2022-09-13T00:01:00;13.50;99.90
9437;DHT22;4757;59.334;18.034;2022-09-13T00:03:27;13.40;99.90
9437;DHT22;4757;59.334;18.034;2022-09-13T00:05:54;13.50;99.90
9437;DHT22;4757;59.334;18.034;2022-09-13T00:08:22;13.50;99.90
9437;DHT22;4757;59.334;18.034;2022-09-13T00:10:48;13.50;99.90
9437;DHT22;4757;59.334;18.034;2022-09-13T00:13:16;13.50;99.90
9437;DHT22;4757;59.334;18.034;2022-09-13T00:15:46;13.50;99.90
9437;DHT22;4757;59.334;18.034;2022-09-13T00:18:19;13.50;99.90
9437;DHT22;4757;59.334;18.034;2022-09-13T00:20:51;13.50;99.90
9437;DHT22;4757;59.334;18.034;2022-09-13T00:23:18;13.50;99.90
9437;DHT22;4757;59.334;18.034;2022-09-13T00:25:45;13.50;99.90
9437;DHT22;4757;59.334;18.034;2022-09-13T00:28:13;13.50;99.90
9437;DHT22;4757;59.334;18.034;2022-09-13T00:30:40;13.50;99.90
9437;DHT22;4757;59.334;18.034;2022-09-13T00:33:07;13.50;99.90
9437;DHT22;4757;59.334;18.034;2022-09-13T00:35:34;13.50;99.90
9437;DHT22;4757;59.334;18.034;2022-09-13T00:38:01;13.40;99.90
9437;DHT22;4757;59.334;18.034;2022-09-13T00:40:28;13.50;99.90
9437;DHT22;4757;59.334;18.034;2022-09-13T00:42:56;13.50;99.90
9437;DHT22;4757;59.334;18.034;2022-09-13T00:45:23;13.50;99.90
9437;DHT22;4757;59.334;18.034;2022-09-13T00:48:04;13.50;99.90
9437;DHT22;4757;59.334;18.034;2022-09-13T00:50:36;13.50;99.90
9437;DHT22;4757;59.334;18.034;2022-09-13T00:55:42;13.50;99.90
9437;DHT22;4757;59.334;18.034;2022-09-13T00:58:16;13.50;99.90
9437;DHT22;4757;59.334;18.034;2022-09-13T01:00:45;13.50;99.90
9437;DHT22;4757;59.334;18.034;2022-09-13T01:03:14;13.50;99.90
9437;DHT22;4757;59.334;18.034;2022-09-13T01:08:32;13.50;99.90
9437;DHT22;4757;59.334;18.034;2022-09-13T01:11:01;13.60;99.90
9437;DHT22;4757;59.334;18.034;2022-09-13T01:13:33;13.50;99.90
9437;DHT22;4757;59.334;18.034;2022-09-13T01:16:01;13.50;99.90
9437;DHT22;4757;59.334;18.034;2022-09-13T01:18:28;13.50;99.90
9437;DHT22;4757;59.334;18.034;2022-09-13T01:37:06;13.60;99.90
9437;DHT22;4757;59.334;18.034;2022-09-13T01:46:05;13.70;99.90
9437;DHT22;4757;59.334;18.034;2022-09-13T01:48:51;13.70;99.90
9437;DHT22;4757;59.334;18.034;2022-09-13T01:51:32;13.70;99.90
9437;DHT22;4757;59.334;18.034;2022-09-13T01:57:08;13.80;99.90
9437;DHT22;4757;59.334;18.034;2022-09-13T02:00:03;13.80;99.90
9437;DHT22;4757;59.334;18.034;2022-09-13T02:02:54;13.80;99.90
9437;DHT22;4757;59.334;18.034;2022-09-13T02:05:40;13.80;99.90
9437;DHT22;4757;59.334;18.034;2022-09-13T02:08:14;13.80;99.90
9437;DHT22;4757;59.334;18.034;2022-09-13T02:10:54;13.90;99.90
9437;DHT22;4757;59.334;18.034;2022-09-13T02:13:29;13.90;99.90
9437;DHT22;4757;59.334;18.034;2022-09-13T02:16:04;13.90;99.90
9437;DHT22;4757;59.334;18.034;2022-09-13T02:18:45;13.90;99.90
9437;DHT22;4757;59.334;18.034;2022-09-13T02:21:25;14.00;99.90
9437;DHT22;4757;59.334;18.034;2022-09-13T02:24:01;14.00;99.90
9437;DHT22;4757;59.334;18.034;2022-09-13T02:26:30;13.90;99.90
9437;DHT22;4757;59.334;18.034;2022-09-13T02:29:00;14.00;99.90
9437;DHT22;4757;59.334;18.034;2022-09-13T02:31:40;14.00;99.90
9437;DHT22;4757;59.334;18.034;2022-09-13T02:34:21;14.00;99.90
9437;DHT22;4757;59.334;18.034;2022-09-13T02:36:50;14.00;99.90
9437;DHT22;4757;59.334;18.034;2022-09-13T02:39:22;14.00;99.90
9437;DHT22;4757;59.334;18.034;2022-09-13T02:42:02;14.00;99.90
9437;DHT22;4757;59.334;18.034;2022-09-13T02:44:31;14.00;99.90
9437;DHT22;4757;59.334;18.034;2022-09-13T02:47:10;14.00;99.90
9437;DHT22;4757;59.334;18.034;2022-09-13T02:52:42;14.10;99.90
9437;DHT22;4757;59.334;18.034;2022-09-13T03:00:34;14.10;99.90
9437;DHT22;4757;59.334;18.034;2022-09-13T03:03:04;14.20;99.90
9437;DHT22;4757;59.334;18.034;2022-09-13T03:05:32;14.20;99.90
9437;DHT22;4757;59.334;18.034;2022-09-13T03:07:59;14.20;99.90
9437;DHT22;4757;59.334;18.034;2022-09-13T03:10:33;14.20;99.90
9437;DHT22;4757;59.334;18.034;2022-09-13T03:19:07;14.30;99.90
9437;DHT22;4757;59.334;18.034;2022-09-13T03:30:12;14.40;99.90
9437;DHT22;4757;59.334;18.034;2022-09-13T03:33:03;14.30;99.90
9437;DHT22;4757;59.334;18.034;2022-09-13T03:35:53;14.30;99.90
9437;DHT22;4757;59.334;18.034;2022-09-13T03:38:27;14.40;99.90
9437;DHT22;4757;59.334;18.034;2022-09-13T03:41:03;14.40;99.90
9437;DHT22;4757;59.334;18.034;2022-09-13T03:43:48;14.40;99.90
9437;DHT22;4757;59.334;18.034;2022-09-13T03:46:29;14.40;99.90
9437;DHT22;4757;59.334;18.034;2022-09-13T03:49:01;14.50;99.90
9437;DHT22;4757;59.334;18.034;2022-09-13T03:51:29;14.50;99.90
9437;DHT22;4757;59.334;18.034;2022-09-13T03:54:03;14.50;99.90
9437;DHT22;4757;59.334;18.034;2022-09-13T03:56:31;14.60;99.90
9437;DHT22;4757;59.334;18.034;2022-09-13T03:58:58;14.60;99.90
9437;DHT22;4757;59.334;18.034;2022-09-13T04:01:25;14.60;99.90
9437;DHT22;4757;59.334;18.034;2022-09-13T04:03:52;14.70;99.90
9437;DHT22;4757;59.334;18.034;2022-09-13T04:06:22;14.70;99.90
9437;DHT22;4757;59.334;18.034;2022-09-13T04:08:49;14.70;99.90
9437;DHT22;4757;59.334;18.034;2022-09-13T04:11:17;14.70;99.90
9437;DHT22;4757;59.334;18.034;2022-09-13T04:13:44;14.70;99.90
9437;DHT22;4757;59.334;18.034;2022-09-13T04:16:11;14.80;99.90
9437;DHT22;4757;59.334;18.034;2022-09-13T04:18:38;14.80;99.90
9437;DHT22;4757;59.334;18.034;2022-09-13T04:21:05;14.80;99.90
9437;DHT22;4757;59.334;18.034;2022-09-13T04:23:32;14.80;99.90
9437;DHT22;4757;59.334;18.034;2022-09-13T04:26:04;14.90;99.90
9437;DHT22;4757;59.334;18.034;2022-09-13T04:28:31;14.90;99.90
9437;DHT22;4757;59.334;18.034;2022-09-13T04:30:58;14.90;99.90
9437;DHT22;4757;59.334;18.034;2022-09-13T04:33:25;14.90;99.90
9437;DHT22;4757;59.334;18.034;2022-09-13T04:35:59;14.90;99.90
9437;DHT22;4757;59.334;18.034;2022-09-13T04:38:26;14.90;99.90
9437;DHT22;4757;59.334;18.034;2022-09-13T04:40:54;14.90;99.90
9437;DHT22;4757;59.334;18.034;2022-09-13T04:43:22;14.90;99.90
9437;DHT22;4757;59.334;18.034;2022-09-13T04:45:49;14.90;99.90
9437;DHT22;4757;59.334;18.034;2022-09-13T04:48:17;15.00;99.90
9437;DHT22;4757;59.334;18.034;2022-09-13T04:50:44;15.00;99.90
9437;DHT22;4757;59.334;18.034;2022-09-13T04:53:12;15.00;99.90
9437;DHT22;4757;59.334;18.034;2022-09-13T04:55:39;15.00;99.90
9437;DHT22;4757;59.334;18.034;2022-09-13T04:58:06;15.00;99.90
9437;DHT22;4757;59.334;18.034;2022-09-13T05:00:33;15.00;99.90
9437;DHT22;4757;59.334;18.034;2022-09-13T05:03:01;15.00;99.90
9437;DHT22;4757;59.334;18.034;2022-09-13T05:05:28;15.10;99.90
9437;DHT22;4757;59.334;18.034;2022-09-13T05:07:56;15.00;99.90
9437;DHT22;4757;59.334;18.034;2022-09-13T05:10:24;15.10;99.90
9437;DHT22;4757;59.334;18.034;2022-09-13T05:12:51;15.10;99.90
9437;DHT22;4757;59.334;18.034;2022-09-13T05:15:18;15.10;99.90
9437;DHT22;4757;59.334;18.034;2022-09-13T05:17:45;15.10;99.90
9437;DHT22;4757;59.334;18.034;2022-09-13T05:20:12;15.10;99.90
9437;DHT22;4757;59.334;18.034;2022-09-13T05:22:39;15.10;99.90
9437;DHT22;4757;59.334;18.034;2022-09-13T05:25:06;15.20;99.90
9437;DHT22;4757;59.334;18.034;2022-09-13T05:27:33;15.20;99.90
9437;DHT22;4757;59.334;18.034;2022-09-13T05:30:01;15.10;99.90
9437;DHT22;4757;59.334;18.034;2022-09-13T05:32:30;15.10;99.90
9437;DHT22;4757;59.334;18.034;2022-09-13T05:34:57;15.20;99.90
9437;DHT22;4757;59.334;18.034;2022-09-13T05:37:24;15.20;99.90
9437;DHT22;4757;59.334;18.034;2022-09-13T05:39:51;15.20;99.90
9437;DHT22;4757;59.334;18.034;2022-09-13T05:42:38;15.20;99.90
9437;DHT22;4757;59.334;18.034;2022-09-13T05:45:05;15.20;99.90
9437;DHT22;4757;59.334;18.034;2022-09-13T05:47:32;15.20;99.90
9437;DHT22;4757;59.334;18.034;2022-09-13T05:49:59;15.30;99.90
9437;DHT22;4757;59.334;18.034;2022-09-13T05:52:53;15.20;99.90
9437;DHT22;4757;59.334;18.034;2022-09-13T05:55:21;15.30;99.90
9437;DHT22;4757;59.334;18.034;2022-09-13T05:57:49;15.30;99.90
9437;DHT22;4757;59.334;18.034;2022-09-13T06:00:16;15.30;99.90
9437;DHT22;4757;59.334;18.034;2022-09-13T06:02:43;15.30;99.90
9437;DHT22;4757;59.334;18.034;2022-09-13T06:05:10;15.30;99.90
9437;DHT22;4757;59.334;18.034;2022-09-13T06:07:41;15.30;99.90
9437;DHT22;4757;59.334;18.034;2022-09-13T06:10:09;15.30;99.90
9437;DHT22;4757;59.334;18.034;2022-09-13T06:12:36;15.30;99.90
9437;DHT22;4757;59.334;18.034;2022-09-13T06:15:04;15.30;99.90
9437;DHT22;4757;59.334;18.034;2022-09-13T06:17:31;15.30;99.90
9437;DHT22;4757;59.334;18.034;2022-09-13T06:19:58;15.30;99.90
9437;DHT22;4757;59.334;18.034;2022-09-13T06:22:25;15.30;99.90
9437;DHT22;4757;59.334;18.034;2022-09-13T06:24:58;15.30;99.90
9437;DHT22;4757;59.334;18.034;2022-09-13T06:27:25;15.30;99.90
9437;DHT22;4757;59.334;18.034;2022-09-13T06:29:52;15.40;99.90
9437;DHT22;4757;59.334;18.034;2022-09-13T06:32:21;15.30;99.90
9437;DHT22;4757;59.334;18.034;2022-09-13T06:34:48;15.40;99.90
9437;DHT22;4757;59.334;18.034;2022-09-13T06:37:15;15.30;99.90
9437;DHT22;4757;59.334;18.034;2022-09-13T06:39:42;15.40;99.90
9437;DHT22;4757;59.334;18.034;2022-09-13T06:42:09;15.50;99.90
9437;DHT22;4757;59.334;18.034;2022-09-13T06:44:36;15.50;99.90
9437;DHT22;4757;59.334;18.034;2022-09-13T06:47:03;15.40;99.90
9437;DHT22;4757;59.334;18.034;2022-09-13T06:49:30;15.40;99.90
9437;DHT22;4757;59.334;18.034;2022-09-13T06:51:57;15.40;99.90
9437;DHT22;4757;59.334;18.034;2022-09-13T06:54:24;15.30;99.90
9437;DHT22;4757;59.334;18.034;2022-09-13T06:56:51;15.20;99.90
9437;DHT22;4757;59.334;18.034;2022-09-13T06:59:19;15.30;99.90
9437;DHT22;4757;59.334;18.034;2022-09-13T07:01:46;15.30;99.90
9437;DHT22;4757;59.334;18.034;2022-09-13T07:04:15;15.30;99.90
9437;DHT22;4757;59.334;18.034;2022-09-13T07:06:45;15.30;99.90
9437;DHT22;4757;59.334;18.034;2022-09-13T07:09:18;15.30;99.90
9437;DHT22;4757;59.334;18.034;2022-09-13T07:11:47;15.20;99.90
9437;DHT22;4757;59.334;18.034;2022-09-13T07:14:17;15.10;99.90
9437;DHT22;4757;59.334;18.034;2022-09-13T07:16:44;15.10;99.90
9437;DHT22;4757;59.334;18.034;2022-09-13T07:19:18;15.10;99.90
9437;DHT22;4757;59.334;18.034;2022-09-13T07:21:46;15.00;99.90
9437;DHT22;4757;59.334;18.034;2022-09-13T07:24:15;14.80;99.90
9437;DHT22;4757;59.334;18.034;2022-09-13T07:26:43;14.60;99.90
9437;DHT22;4757;59.334;18.034;2022-09-13T07:29:13;14.50;99.90
9437;DHT22;4757;59.334;18.034;2022-09-13T07:31:46;14.50;99.90
9437;DHT22;4757;59.334;18.034;2022-09-13T07:34:16;14.60;99.90
9437;DHT22;4757;59.334;18.034;2022-09-13T07:36:44;14.60;99.90
9437;DHT22;4757;59.334;18.034;2022-09-13T07:39:13;14.60;99.90
9437;DHT22;4757;59.334;18.034;2022-09-13T07:41:47;14.60;99.90
9437;DHT22;4757;59.334;18.034;2022-09-13T07:44:14;14.60;99.90
9437;DHT22;4757;59.334;18.034;2022-09-13T07:46:41;14.40;99.90
9437;DHT22;4757;59.334;18.034;2022-09-13T07:49:13;14.30;99.90
9437;DHT22;4757;59.334;18.034;2022-09-13T07:51:43;14.30;99.90
9437;DHT22;4757;59.334;18.034;2022-09-13T07:54:12;14.30;99.90
9437;DHT22;4757;59.334;18.034;2022-09-13T07:56:40;14.20;99.90
9437;DHT22;4757;59.334;18.034;2022-09-13T07:59:15;14.20;99.90
9437;DHT22;4757;59.334;18.034;2022-09-13T08:01:45;14.10;99.90
9437;DHT22;4757;59.334;18.034;2022-09-13T08:04:15;14.10;99.90
9437;DHT22;4757;59.334;18.034;2022-09-13T08:06:43;14.00;99.90
9437;DHT22;4757;59.334;18.034;2022-09-13T08:09:12;14.00;99.90
9437;DHT22;4757;59.334;18.034;2022-09-13T08:11:48;14.00;99.90
9437;DHT22;4757;59.334;18.034;2022-09-13T08:14:17;13.90;99.90
9437;DHT22;4757;59.334;18.034;2022-09-13T08:16:45;13.90;99.90
9437;DHT22;4757;59.334;18.034;2022-09-13T08:19:15;13.90;99.90
9437;DHT22;4757;59.334;18.034;2022-09-13T08:21:43;13.90;99.90
9437;DHT22;4757;59.334;18.034;2022-09-13T08:24:16;13.90;99.90
9437;DHT22;4757;59.334;18.034;2022-09-13T08:26:45;13.90;99.90
9437;DHT22;4757;59.334;18.034;2022-09-13T08:29:14;13.90;99.90
9437;DHT22;4757;59.334;18.034;2022-09-13T08:31:41;13.90;99.90
9437;DHT22;4757;59.334;18.034;2022-09-13T08:34:15;13.80;99.90
9437;DHT22;4757;59.334;18.034;2022-09-13T08:36:42;13.80;99.90
9437;DHT22;4757;59.334;18.034;2022-09-13T08:39:10;13.80;99.90
9437;DHT22;4757;59.334;18.034;2022-09-13T08:44:24;13.70;99.90
9437;DHT22;4757;59.334;18.034;2022-09-13T08:47:06;13.70;99.90
9437;DHT22;4757;59.334;18.034;2022-09-13T08:49:46;13.70;99.90
9437;DHT22;4757;59.334;18.034;2022-09-13T08:54:42;13.60;99.90
9437;DHT22;4757;59.334;18.034;2022-09-13T08:57:38;13.60;99.90
9437;DHT22;4757;59.334;18.034;2022-09-13T09:00:19;13.70;99.90
9437;DHT22;4757;59.334;18.034;2022-09-13T09:05:28;13.40;99.90
9437;DHT22;4757;59.334;18.034;2022-09-13T09:08:02;13.40;99.90
9437;DHT22;4757;59.334;18.034;2022-09-13T09:10:34;13.30;99.90
9437;DHT22;4757;59.334;18.034;2022-09-13T09:13:08;13.20;99.90
9437;DHT22;4757;59.334;18.034;2022-09-13T09:15:42;13.30;99.90
9437;DHT22;4757;59.334;18.034;2022-09-13T09:18:23;13.30;99.90
9437;DHT22;4757;59.334;18.034;2022-09-13T09:20:56;13.40;99.90
9437;DHT22;4757;59.334;18.034;2022-09-13T09:23:53;13.20;99.90
9437;DHT22;4757;59.334;18.034;2022-09-13T09:26:25;13.20;99.90
9437;DHT22;4757;59.334;18.034;2022-09-13T09:34:19;13.00;99.90
9437;DHT22;4757;59.334;18.034;2022-09-13T09:37:04;13.10;99.90
9437;DHT22;4757;59.334;18.034;2022-09-13T09:39:33;13.10;99.90
9437;DHT22;4757;59.334;18.034;2022-09-13T09:42:20;13.10;99.90
9437;DHT22;4757;59.334;18.034;2022-09-13T09:44:51;13.10;99.90
9437;DHT22;4757;59.334;18.034;2022-09-13T09:47:21;13.20;99.90
9437;DHT22;4757;59.334;18.034;2022-09-13T09:49:57;13.10;99.90
9437;DHT22;4757;59.334;18.034;2022-09-13T09:52:52;13.20;99.90
9437;DHT22;4757;59.334;18.034;2022-09-13T09:55:27;13.20;99.90
9437;DHT22;4757;59.334;18.034;2022-09-13T09:58:03;13.30;99.90
9437;DHT22;4757;59.334;18.034;2022-09-13T10:00:36;13.20;99.90
9437;DHT22;4757;59.334;18.034;2022-09-13T10:03:18;13.40;99.90
9437;DHT22;4757;59.334;18.034;2022-09-13T10:05:46;13.60;99.90
9437;DHT22;4757;59.334;18.034;2022-09-13T10:08:29;13.90;99.90
9437;DHT22;4757;59.334;18.034;2022-09-13T10:11:00;14.00;99.90
9437;DHT22;4757;59.334;18.034;2022-09-13T10:13:29;14.20;99.90
9437;DHT22;4757;59.334;18.034;2022-09-13T10:16:00;14.30;99.90
9437;DHT22;4757;59.334;18.034;2022-09-13T10:18:33;14.40;99.90
9437;DHT22;4757;59.334;18.034;2022-09-13T10:23:47;14.50;99.90
9437;DHT22;4757;59.334;18.034;2022-09-13T10:26:23;14.70;99.90
9437;DHT22;4757;59.334;18.034;2022-09-13T10:28:59;14.70;99.90
9437;DHT22;4757;59.334;18.034;2022-09-13T10:31:42;14.70;99.90
9437;DHT22;4757;59.334;18.034;2022-09-13T10:34:19;14.70;99.90
9437;DHT22;4757;59.334;18.034;2022-09-13T10:37:17;14.70;99.90
9437;DHT22;4757;59.334;18.034;2022-09-13T10:43:14;14.80;99.90
9437;DHT22;4757;59.334;18.034;2022-09-13T10:45:42;14.70;99.90
9437;DHT22;4757;59.334;18.034;2022-09-13T10:48:15;14.80;99.90
9437;DHT22;4757;59.334;18.034;2022-09-13T10:51:02;14.90;99.90
9437;DHT22;4757;59.334;18.034;2022-09-13T10:53:39;15.10;99.90
9437;DHT22;4757;59.334;18.034;2022-09-13T10:56:27;15.40;99.90
9437;DHT22;4757;59.334;18.034;2022-09-13T11:05:07;15.60;99.90
9437;DHT22;4757;59.334;18.034;2022-09-13T11:10:59;15.60;99.90
9437;DHT22;4757;59.334;18.034;2022-09-13T11:24:28;15.40;99.90
9437;DHT22;4757;59.334;18.034;2022-09-13T11:49:20;15.60;99.90
9437;DHT22;4757;59.334;18.034;2022-09-13T11:52:02;15.60;99.90
9437;DHT22;4757;59.334;18.034;2022-09-13T11:54:58;15.50;99.90
9437;DHT22;4757;59.334;18.034;2022-09-13T11:57:32;15.50;99.90
9437;DHT22;4757;59.334;18.034;2022-09-13T12:05:29;15.30;99.90
9437;DHT22;4757;59.334;18.034;2022-09-13T12:08:15;15.00;99.90
9437;DHT22;4757;59.334;18.034;2022-09-13T12:10:51;15.00;99.90
9437;DHT22;4757;59.334;18.034;2022-09-13T12:13:29;14.90;99.90
9437;DHT22;4757;59.334;18.034;2022-09-13T12:16:04;14.90;99.90
9437;DHT22;4757;59.334;18.034;2022-09-13T12:18:39;14.80;99.90
9437;DHT22;4757;59.334;18.034;2022-09-13T12:21:34;14.70;99.90
9437;DHT22;4757;59.334;18.034;2022-09-13T12:24:42;14.60;99.90
9437;DHT22;4757;59.334;18.034;2022-09-13T12:27:33;14.50;99.90
9437;DHT22;4757;59.334;18.034;2022-09-13T12:30:16;14.30;99.90
9437;DHT22;4757;59.334;18.034;2022-09-13T12:32:45;14.20;99.90
9437;DHT22;4757;59.334;18.034;2022-09-13T13:01:10;13.80;99.90
9437;DHT22;4757;59.334;18.034;2022-09-13T13:04:09;13.70;99.90
9437;DHT22;4757;59.334;18.034;2022-09-13T13:09:38;13.70;99.90
9437;DHT22;4757;59.334;18.034;2022-09-13T13:12:09;13.70;99.90
9437;DHT22;4757;59.334;18.034;2022-09-13T13:29:16;13.50;99.90
9437;DHT22;4757;59.334;18.034;2022-09-13T13:42:40;13.50;99.90
9437;DHT22;4757;59.334;18.034;2022-09-13T13:49:52;13.70;99.90
9437;DHT22;4757;59.334;18.034;2022-09-13T13:52:37;13.90;99.90
9437;DHT22;4757;59.334;18.034;2022-09-13T13:55:28;14.00;99.90
9437;DHT22;4757;59.334;18.034;2022-09-13T13:57:58;13.80;99.90
9437;DHT22;4757;59.334;18.034;2022-09-13T14:00:29;13.90;99.90
9437;DHT22;4757;59.334;18.034;2022-09-13T14:09:03;14.00;99.90
9437;DHT22;4757;59.334;18.034;2022-09-13T14:20:04;14.30;99.90
9437;DHT22;4757;59.334;18.034;2022-09-13T14:22:34;14.30;99.90
9437;DHT22;4757;59.334;18.034;2022-09-13T14:27:47;14.30;99.90
9437;DHT22;4757;59.334;18.034;2022-09-13T14:30:27;14.30;99.90
9437;DHT22;4757;59.334;18.034;2022-09-13T14:32:56;14.20;99.90
9437;DHT22;4757;59.334;18.034;2022-09-13T14:35:29;14.00;99.90
9437;DHT22;4757;59.334;18.034;2022-09-13T14:38:28;14.00;99.90
9437;DHT22;4757;59.334;18.034;2022-09-13T14:43:39;14.20;99.90
9437;DHT22;4757;59.334;18.034;2022-09-13T14:46:15;14.20;99.90
9437;DHT22;4757;59.334;18.034;2022-09-13T14:48:55;14.10;99.90
9437;DHT22;4757;59.334;18.034;2022-09-13T14:51:28;14.10;99.90
9437;DHT22;4757;59.334;18.034;2022-09-13T14:54:08;14.00;99.90
9437;DHT22;4757;59.334;18.034;2022-09-13T14:56:42;14.00;99.90
9437;DHT22;4757;59.334;18.034;2022-09-13T14:59:22;13.90;99.90
9437;DHT22;4757;59.334;18.034;2022-09-13T15:01:52;14.00;99.90
9437;DHT22;4757;59.334;18.034;2022-09-13T15:04:19;14.00;99.90
9437;DHT22;4757;59.334;18.034;2022-09-13T15:07:15;13.90;99.90
9437;DHT22;4757;59.334;18.034;2022-09-13T15:09:45;14.00;99.90
9437;DHT22;4757;59.334;18.034;2022-09-13T15:12:24;13.70;99.90
9437;DHT22;4757;59.334;18.034;2022-09-13T15:20:56;13.30;99.90
9437;DHT22;4757;59.334;18.034;2022-09-13T15:23:27;13.40;99.90
9437;DHT22;4757;59.334;18.034;2022-09-13T15:31:07;13.50;99.90
9437;DHT22;4757;59.334;18.034;2022-09-13T15:33:34;13.60;99.90
9437;DHT22;4757;59.334;18.034;2022-09-13T15:41:35;13.60;99.90
9437;DHT22;4757;59.334;18.034;2022-09-13T15:44:06;13.60;99.90
9437;DHT22;4757;59.334;18.034;2022-09-13T15:46:46;13.50;99.90
9437;DHT22;4757;59.334;18.034;2022-09-13T15:49:19;13.80;99.90
9437;DHT22;4757;59.334;18.034;2022-09-13T15:51:46;14.10;99.90
9437;DHT22;4757;59.334;18.034;2022-09-13T15:54:22;14.40;99.90
9437;DHT22;4757;59.334;18.034;2022-09-13T15:56:49;14.40;99.90
9437;DHT22;4757;59.334;18.034;2022-09-13T15:59:21;14.40;99.90
9437;DHT22;4757;59.334;18.034;2022-09-13T16:01:50;14.50;99.90
9437;DHT22;4757;59.334;18.034;2022-09-13T16:04:18;14.60;99.90
9437;DHT22;4757;59.334;18.034;2022-09-13T16:06:45;14.70;99.90
9437;DHT22;4757;59.334;18.034;2022-09-13T16:09:20;14.90;99.90
9437;DHT22;4757;59.334;18.034;2022-09-13T16:11:49;14.90;99.90
9437;DHT22;4757;59.334;18.034;2022-09-13T16:14:18;15.00;99.90
9437;DHT22;4757;59.334;18.034;2022-09-13T16:16:45;15.00;99.90
9437;DHT22;4757;59.334;18.034;2022-09-13T16:19:15;15.00;99.90
9437;DHT22;4757;59.334;18.034;2022-09-13T16:21:42;15.00;99.90
9437;DHT22;4757;59.334;18.034;2022-09-13T16:24:09;15.00;99.90
9437;DHT22;4757;59.334;18.034;2022-09-13T16:26:37;15.00;99.90
9437;DHT22;4757;59.334;18.034;2022-09-13T16:29:05;15.00;99.90
9437;DHT22;4757;59.334;18.034;2022-09-13T16:31:32;15.00;99.90
9437;DHT22;4757;59.334;18.034;2022-09-13T16:33:59;15.00;99.90
9437;DHT22;4757;59.334;18.034;2022-09-13T16:36:26;15.00;99.90
9437;DHT22;4757;59.334;18.034;2022-09-13T16:38:55;15.00;99.90
9437;DHT22;4757;59.334;18.034;2022-09-13T16:41:23;14.90;99.90
9437;DHT22;4757;59.334;18.034;2022-09-13T16:43:50;14.90;99.90
9437;DHT22;4757;59.334;18.034;2022-09-13T16:46:17;14.90;99.90
9437;DHT22;4757;59.334;18.034;2022-09-13T16:48:44;14.80;99.90
9437;DHT22;4757;59.334;18.034;2022-09-13T16:51:12;14.80;99.90
9437;DHT22;4757;59.334;18.034;2022-09-13T16:53:40;14.80;99.90
9437;DHT22;4757;59.334;18.034;2022-09-13T16:56:13;14.80;99.90
9437;DHT22;4757;59.334;18.034;2022-09-13T16:58:42;14.70;99.90
9437;DHT22;4757;59.334;18.034;2022-09-13T17:01:12;14.80;99.90
9437;DHT22;4757;59.334;18.034;2022-09-13T17:03:40;14.70;99.90
9437;DHT22;4757;59.334;18.034;2022-09-13T17:06:10;14.80;99.90
9437;DHT22;4757;59.334;18.034;2022-09-13T17:08:38;14.70;99.90
9437;DHT22;4757;59.334;18.034;2022-09-13T17:11:09;14.80;99.90
9437;DHT22;4757;59.334;18.034;2022-09-13T17:13:38;14.80;99.90
9437;DHT22;4757;59.334;18.034;2022-09-13T17:16:35;14.80;99.90
9437;DHT22;4757;59.334;18.034;2022-09-13T17:19:06;14.90;99.90
9437;DHT22;4757;59.334;18.034;2022-09-13T17:21:33;14.80;99.90
9437;DHT22;4757;59.334;18.034;2022-09-13T17:24:00;14.80;99.90
9437;DHT22;4757;59.334;18.034;2022-09-13T17:26:28;14.80;99.90
9437;DHT22;4757;59.334;18.034;2022-09-13T17:28:56;14.80;99.90
9437;DHT22;4757;59.334;18.034;2022-09-13T17:31:23;14.80;99.90
9437;DHT22;4757;59.334;18.034;2022-09-13T17:33:50;14.90;99.90
9437;DHT22;4757;59.334;18.034;2022-09-13T17:36:19;14.90;99.90
9437;DHT22;4757;59.334;18.034;2022-09-13T17:38:46;14.90;99.90
9437;DHT22;4757;59.334;18.034;2022-09-13T17:41:17;14.90;99.90
9437;DHT22;4757;59.334;18.034;2022-09-13T17:43:45;14.90;99.90
9437;DHT22;4757;59.334;18.034;2022-09-13T17:46:13;14.90;99.90
9437;DHT22;4757;59.334;18.034;2022-09-13T17:48:42;14.90;99.90
9437;DHT22;4757;59.334;18.034;2022-09-13T17:51:12;15.00;99.90
9437;DHT22;4757;59.334;18.034;2022-09-13T17:53:43;14.90;99.90
9437;DHT22;4757;59.334;18.034;2022-09-13T17:56:19;14.90;99.90
9437;DHT22;4757;59.334;18.034;2022-09-13T17:58:47;14.90;99.90
9437;DHT22;4757;59.334;18.034;2022-09-13T18:01:14;14.80;99.90
9437;DHT22;4757;59.334;18.034;2022-09-13T18:03:42;14.80;99.90
9437;DHT22;4757;59.334;18.034;2022-09-13T18:06:10;14.90;99.90
9437;DHT22;4757;59.334;18.034;2022-09-13T18:08:38;14.80;99.90
9437;DHT22;4757;59.334;18.034;2022-09-13T18:11:13;14.80;99.90
9437;DHT22;4757;59.334;18.034;2022-09-13T18:13:47;14.70;99.90
9437;DHT22;4757;59.334;18.034;2022-09-13T18:16:17;14.70;99.90
9437;DHT22;4757;59.334;18.034;2022-09-13T18:18:48;14.70;99.90
9437;DHT22;4757;59.334;18.034;2022-09-13T18:21:17;14.70;99.90
9437;DHT22;4757;59.334;18.034;2022-09-13T18:23:46;14.60;99.90
9437;DHT22;4757;59.334;18.034;2022-09-13T18:26:16;14.50;99.90
9437;DHT22;4757;59.334;18.034;2022-09-13T18:28:44;14.40;99.90
9437;DHT22;4757;59.334;18.034;2022-09-13T18:31:14;14.40;99.90
9437;DHT22;4757;59.334;18.034;2022-09-13T18:33:43;14.40;99.90
9437;DHT22;4757;59.334;18.034;2022-09-13T18:36:15;14.30;99.90
9437;DHT22;4757;59.334;18.034;2022-09-13T18:38:45;14.30;99.90
9437;DHT22;4757;59.334;18.034;2022-09-13T18:41:13;14.30;99.90
9437;DHT22;4757;59.334;18.034;2022-09-13T18:43:42;14.40;99.90
9437;DHT22;4757;59.334;18.034;2022-09-13T18:46:11;14.50;99.90
9437;DHT22;4757;59.334;18.034;2022-09-13T18:48:44;14.50;99.90
9437;DHT22;4757;59.334;18.034;2022-09-13T18:51:14;14.40;99.90
9437;DHT22;4757;59.334;18.034;2022-09-13T18:53:43;14.30;99.90
9437;DHT22;4757;59.334;18.034;2022-09-13T18:56:14;14.30;99.90
9437;DHT22;4757;59.334;18.034;2022-09-13T18:58:42;14.30;99.90
9437;DHT22;4757;59.334;18.034;2022-09-13T19:01:15;14.30;99.90
9437;DHT22;4757;59.334;18.034;2022-09-13T19:06:28;14.30;99.90
9437;DHT22;4757;59.334;18.034;2022-09-13T19:08:56;14.30;99.90
9437;DHT22;4757;59.334;18.034;2022-09-13T19:11:25;14.20;99.90
9437;DHT22;4757;59.334;18.034;2022-09-13T19:14:21;14.30;99.90
9437;DHT22;4757;59.334;18.034;2022-09-13T19:16:52;14.30;99.90
9437;DHT22;4757;59.334;18.034;2022-09-13T19:19:20;14.20;99.90
9437;DHT22;4757;59.334;18.034;2022-09-13T19:21:47;14.10;99.90
9437;DHT22;4757;59.334;18.034;2022-09-13T19:24:15;14.00;99.90
9437;DHT22;4757;59.334;18.034;2022-09-13T19:26:47;13.90;99.90
9437;DHT22;4757;59.334;18.034;2022-09-13T19:29:16;13.90;99.90
9437;DHT22;4757;59.334;18.034;2022-09-13T19:31:45;13.70;99.90
9437;DHT22;4757;59.334;18.034;2022-09-13T19:34:17;13.70;99.90
9437;DHT22;4757;59.334;18.034;2022-09-13T19:36:46;13.60;99.90
9437;DHT22;4757;59.334;18.034;2022-09-13T19:39:15;13.70;99.90
9437;DHT22;4757;59.334;18.034;2022-09-13T19:41:42;13.80;99.90
9437;DHT22;4757;59.334;18.034;2022-09-13T19:44:11;13.70;99.90
9437;DHT22;4757;59.334;18.034;2022-09-13T19:46:39;13.70;99.90
9437;DHT22;4757;59.334;18.034;2022-09-13T19:49:11;13.60;99.90
9437;DHT22;4757;59.334;18.034;2022-09-13T19:51:39;13.40;99.90
9437;DHT22;4757;59.334;18.034;2022-09-13T19:54:10;13.40;99.90